Time;durP1;ratioP1;P1;durP2;ratioP2;P2;SDS_P1;SDS_P2;PMS_P1;PMS_P2;Temp;Humidity;BMP_temperature;BMP_pressure;BME280_temperature;BME280_humidity;BME280_pressure;Samples;Min_cycle;Max_cycle;Signal;HPM_P1;HPM_P2
2022/05/26 00:00:30;;;;;;;2.37;2.10;;;;;;;14.09;76.90;101655.31;6215913;23;20074;-82
2022/05/26 00:02:56;;;;;;;2.50;2.30;;;;;;;14.08;76.63;101650.09;6215510;23;20051;-83
2022/05/26 00:05:21;;;;;;;2.47;2.27;;;;;;;14.07;75.45;101654.47;6214847;23;20004;-82
2022/05/26 00:07:46;;;;;;;2.47;2.20;;;;;;;14.07;76.49;101649.25;6215406;23;20009;-83
2022/05/26 00:10:12;;;;;;;2.63;2.20;;;;;;;14.08;76.12;101652.72;6215259;23;20004;-82
2022/05/26 00:12:37;;;;;;;1.97;1.87;;;;;;;14.09;75.12;101651.81;6214421;23;20008;-81
2022/05/26 00:15:04;;;;;;;2.30;2.10;;;;;;;14.08;75.73;101650.97;6215428;23;20071;-82
2022/05/26 00:17:30;;;;;;;1.98;1.88;;;;;;;14.11;75.77;101652.66;6215342;23;20000;-82
2022/05/26 00:19:58;;;;;;;1.80;1.70;;;;;;;14.10;74.98;101657.03;6213869;23;20012;-82
2022/05/26 00:22:24;;;;;;;2.67;2.40;;;;;;;14.10;75.75;101662.25;6215995;23;20024;-82
2022/05/26 00:24:50;;;;;;;2.20;2.10;;;;;;;14.11;75.06;101663.09;6215299;23;20001;-82
2022/05/26 00:27:15;;;;;;;2.70;2.20;;;;;;;14.11;76.04;101668.31;6214411;23;20327;-83
2022/05/26 00:29:40;;;;;;;3.43;2.20;;;;;;;14.10;75.96;101671.81;6214790;23;20016;-82
2022/05/26 00:32:07;;;;;;;2.03;1.90;;;;;;;14.10;75.89;101670.09;6215618;23;20017;-82
2022/05/26 00:34:32;;;;;;;1.95;1.80;;;;;;;14.11;75.45;101670.94;6214531;23;20015;-82
2022/05/26 00:36:58;;;;;;;2.00;1.90;;;;;;;14.11;76.08;101663.09;6215174;23;20028;-82
2022/05/26 00:39:24;;;;;;;2.73;2.00;;;;;;;14.10;76.58;101675.31;6215492;23;20027;-82
2022/05/26 00:41:52;;;;;;;;;;;;;;;14.10;76.02;101677.03;6214551;23;20314;-82
2022/05/26 00:44:18;;;;;;;2.83;2.30;;;;;;;14.08;77.27;101676.19;6215504;23;20038;-82
2022/05/26 00:46:55;;;;;;;1.97;1.87;;;;;;;14.08;75.57;101673.59;6215048;23;20020;-83
2022/05/26 00:49:42;;;;;;;2.92;1.90;;;;;;;14.10;75.77;101677.03;6214682;23;20008;-82
2022/05/26 00:52:15;;;;;;;;;;;;;;;14.11;76.39;101678.78;6215581;23;20419;-82
2022/05/26 00:54:43;;;;;;;3.08;2.28;;;;;;;14.08;77.92;101678.81;6214106;23;19930;-82
2022/05/26 00:57:14;;;;;;;5.72;2.90;;;;;;;14.09;75.99;101670.97;6215000;23;20493;-82
2022/05/26 00:59:50;;;;;;;2.60;2.40;;;;;;;14.05;76.37;101666.69;6215128;23;20381;-82
2022/05/26 01:02:18;;;;;;;2.65;2.25;;;;;;;14.05;77.22;101669.28;6214564;23;20004;-82
2022/05/26 01:04:49;;;;;;;2.85;2.28;;;;;;;14.04;77.39;101675.41;6214826;23;20000;-82
2022/05/26 01:07:24;;;;;;;3.72;2.90;;;;;;;14.01;77.40;101673.72;6215316;23;20322;-82
2022/05/26 01:09:50;;;;;;;2.70;2.40;;;;;;;14.03;76.43;101674.56;6214175;23;20001;-82
2022/05/26 01:12:16;;;;;;;2.00;1.90;;;;;;;14.04;76.31;101670.19;6215372;23;20011;-82
2022/05/26 01:15:09;;;;;;;2.50;2.30;;;;;;;14.05;76.08;101672.78;6214406;23;20012;-82
2022/05/26 01:17:50;;;;;;;2.63;2.20;;;;;;;14.05;76.50;101670.16;6210110;23;20012;-82
2022/05/26 01:20:27;;;;;;;2.20;2.00;;;;;;;14.07;77.71;101680.56;6215363;23;20013;-82
2022/05/26 01:23:29;;;;;;;2.45;2.20;;;;;;;14.05;77.19;101675.41;6214084;23;20031;-82
2022/05/26 01:26:27;;;;;;;3.67;2.50;;;;;;;14.04;76.74;101675.41;6214953;23;20329;-83
2022/05/26 01:29:10;;;;;;;2.25;2.05;;;;;;;14.05;76.64;101683.22;6214765;23;20047;-82
2022/05/26 01:31:45;;;;;;;4.25;2.20;;;;;;;14.07;77.27;101679.72;6214033;23;20043;-82
2022/05/26 01:34:13;;;;;;;2.90;2.38;;;;;;;14.05;77.65;101683.22;6215399;23;20044;-83
2022/05/26 01:36:59;;;;;;;2.20;2.00;;;;;;;14.07;76.38;101682.34;6213901;23;20816;-82
2022/05/26 01:39:37;;;;;;;2.85;2.30;;;;;;;14.07;78.18;101682.34;6215616;23;20016;-82
2022/05/26 01:42:15;;;;;;;4.63;2.78;;;;;;;14.06;77.43;101684.06;6215142;23;20005;-83
2022/05/26 01:44:53;;;;;;;4.00;2.60;;;;;;;14.04;78.33;101685.84;6213827;23;20028;-83
2022/05/26 01:47:31;;;;;;;3.78;2.67;;;;;;;14.04;77.60;101691.94;6215031;23;20009;-82
2022/05/26 01:50:06;;;;;;;4.28;2.88;;;;;;;14.03;77.60;101692.81;6214962;23;20074;-82
2022/05/26 01:52:41;;;;;;;5.20;3.03;;;;;;;14.01;77.77;101691.97;6214016;23;20019;-82
2022/05/26 01:55:22;;;;;;;3.13;2.80;;;;;;;14.02;77.12;101701.53;6215267;23;20100;-82
2022/05/26 01:58:00;;;;;;;4.38;2.85;;;;;;;14.04;78.00;101706.72;6215713;23;20008;-82
2022/05/26 02:00:25;;;;;;;6.22;3.00;;;;;;;14.02;77.86;101706.75;6216654;23;20430;-82
2022/05/26 02:03:01;;;;;;;6.40;3.70;;;;;;;14.01;78.18;101710.25;6216566;23;20012;-82
2022/05/26 02:05:30;;;;;;;6.63;3.72;;;;;;;14.01;78.11;101709.41;6216030;23;20031;-82
2022/05/26 02:08:06;;;;;;;6.20;3.58;;;;;;;14.00;78.25;101705.91;6216401;23;20008;-82
2022/05/26 02:10:42;;;;;;;5.00;3.28;;;;;;;13.98;77.76;101707.69;6217036;23;20009;-83
2022/05/26 02:13:11;;;;;;;6.55;3.72;;;;;;;13.99;78.07;101711.16;6215867;23;20099;-83
2022/05/26 02:15:46;;;;;;;6.07;3.47;;;;;;;13.97;77.91;101719.00;6216555;23;20009;-83
2022/05/26 02:18:21;;;;;;;4.00;3.22;;;;;;;13.99;78.65;101717.22;6216876;23;20000;-83
2022/05/26 02:20:52;;;;;;;6.15;3.60;;;;;;;13.97;77.77;101711.16;6215157;23;20004;-82
2022/05/26 02:23:26;;;;;;;6.00;3.30;;;;;;;13.98;77.89;101725.09;6216686;23;20007;-82
2022/05/26 02:25:51;;;;;;;5.40;3.50;;;;;;;13.96;78.69;101717.28;6215420;23;20000;-83
2022/05/26 02:28:17;;;;;;;4.50;3.20;;;;;;;13.98;77.96;101722.50;6216749;23;20013;-82
2022/05/26 02:30:43;;;;;;;3.80;3.00;;;;;;;13.97;78.60;101720.75;6215738;23;20005;-82
2022/05/26 02:33:13;;;;;;;3.67;2.85;;;;;;;13.96;77.99;101730.31;6215769;23;20024;-82
2022/05/26 02:35:42;;;;;;;3.15;2.70;;;;;;;13.94;78.00;101726.91;6216365;23;20399;-82
2022/05/26 02:38:13;;;;;;;5.63;3.53;;;;;;;13.95;78.80;101735.56;6216723;23;20004;-82
2022/05/26 02:40:38;;;;;;;3.33;2.97;;;;;;;13.95;77.70;101728.63;6215530;23;20468;-82
2022/05/26 02:43:26;;;;;;;5.10;3.07;;;;;;;13.96;78.18;101729.47;6216677;23;20005;-82
2022/05/26 02:46:17;;;;;;;5.32;3.58;;;;;;;13.96;78.26;101730.31;6216147;23;20088;-83
2022/05/26 02:49:17;;;;;;;7.78;3.78;;;;;;;13.92;79.04;101731.28;6214806;23;20478;-82
2022/05/26 02:52:10;;;;;;;6.75;3.90;;;;;;;13.87;78.97;101731.34;6216160;23;20004;-82
2022/05/26 02:55:17;;;;;;;5.05;3.40;;;;;;;13.87;79.01;101731.34;6215577;23;20079;-82
2022/05/26 02:58:09;;;;;;;4.85;3.10;;;;;;;13.86;79.09;101734.84;6215573;23;20051;-82
2022/05/26 03:00:49;;;;;;;7.60;3.58;;;;;;;13.86;78.89;101742.66;6216482;23;20086;-82
2022/05/26 03:03:21;;;;;;;5.50;3.17;;;;;;;13.85;79.05;101735.72;6216422;23;20369;-82
2022/05/26 03:06:08;;;;;;;5.65;3.50;;;;;;;13.84;79.76;101743.56;6216086;23;20382;-82
2022/05/26 03:08:39;;;;;;;5.20;3.40;;;;;;;13.84;78.79;101738.34;6214794;23;20019;-82
2022/05/26 03:11:18;;;;;;;6.60;3.80;;;;;;;13.81;78.59;101738.41;6216382;23;20307;-82
2022/05/26 03:13:44;;;;;;;7.47;3.97;;;;;;;13.81;79.32;101743.63;6216010;23;20005;-82
2022/05/26 03:16:09;;;;;;;4.53;3.10;;;;;;;13.81;78.45;101751.44;6215112;23;20011;-82
2022/05/26 03:18:35;;;;;;;4.83;3.07;;;;;;;13.79;78.39;101747.97;6216352;23;20004;-82
2022/05/26 03:21:04;;;;;;;5.35;3.42;;;;;;;13.75;78.51;101741.94;6215553;23;20489;-83
2022/05/26 03:23:30;;;;;;;5.10;3.03;;;;;;;13.73;79.05;101744.59;6215367;23;20412;-82
2022/05/26 03:25:56;;;;;;;3.73;3.00;;;;;;;13.73;78.92;101743.72;6215739;23;20028;-82
2022/05/26 03:28:26;;;;;;;8.68;3.58;;;;;;;13.72;79.94;101748.09;6215552;23;20441;-83
2022/05/26 03:30:51;;;;;;;10.23;4.55;;;;;;;13.70;79.39;101749.84;6214422;23;20130;-83
2022/05/26 03:33:17;;;;;;;9.97;4.20;;;;;;;13.66;79.83;101750.75;6216042;23;20089;-82
2022/05/26 03:40:46;;;;;;;5.38;3.50;;;;;;;13.66;79.13;101760.34;6215839;23;20015;-83
2022/05/26 03:41:20;;;;;;;7.60;3.90;;;;;;;13.63;80.21;101766.44;6215594;23;20059;-82
2022/05/26 03:43:58;;;;;;;6.00;3.40;;;;;;;13.63;79.12;101773.41;6214498;23;20430;-82
2022/05/26 03:46:25;;;;;;;4.97;3.22;;;;;;;13.64;79.39;101773.38;6215719;23;20386;-82
2022/05/26 03:48:51;;;;;;;7.45;3.70;;;;;;;13.64;80.53;101772.53;6215177;23;20299;-83
2022/05/26 03:51:16;;;;;;;6.43;3.60;;;;;;;13.63;79.54;101770.81;6214770;23;20008;-82
2022/05/26 03:53:41;;;;;;;5.00;2.93;;;;;;;13.61;79.45;101776.06;6215523;23;20005;-82
2022/05/26 03:56:06;;;;;;;6.27;3.30;;;;;;;13.61;79.13;101775.19;6215980;23;20004;-82
2022/05/26 03:58:33;;;;;;;6.93;3.43;;;;;;;13.60;79.42;101782.16;6215022;23;20326;-82
2022/05/26 04:01:06;;;;;;;7.15;3.55;;;;;;;13.59;79.82;101776.06;6214744;23;20000;-82
2022/05/26 04:03:32;;;;;;;6.40;3.25;;;;;;;13.58;80.41;101781.31;6215894;23;20007;-82
2022/05/26 04:05:57;;;;;;;8.73;3.23;;;;;;;13.57;79.98;101784.78;6214487;23;20005;-82
2022/05/26 04:08:23;;;;;;;9.80;3.90;;;;;;;13.53;80.85;101789.19;6215777;23;20427;-82
2022/05/26 04:10:48;;;;;;;7.60;3.20;;;;;;;13.53;81.30;101796.13;6215191;23;20008;-83
2022/05/26 04:13:14;;;;;;;7.20;3.17;;;;;;;13.52;79.49;101794.41;6214349;23;20382;-82
2022/05/26 04:15:39;;;;;;;6.13;2.60;;;;;;;13.53;80.22;101797.03;6214817;23;20008;-82
2022/05/26 04:18:04;;;;;;;4.70;2.57;;;;;;;13.54;79.85;101797.88;6214944;23;20247;-82
2022/05/26 04:20:30;;;;;;;4.40;2.70;;;;;;;13.53;80.81;101791.81;6215281;23;20318;-82
2022/05/26 04:22:55;;;;;;;3.30;2.50;;;;;;;13.54;79.97;101796.13;6214937;23;20005;-82
2022/05/26 04:25:22;;;;;;;3.10;2.30;;;;;;;13.54;79.66;101808.31;6214471;23;20011;-82
2022/05/26 04:27:47;;;;;;;3.50;2.20;;;;;;;13.55;81.08;101808.31;6214844;23;20015;-83
2022/05/26 04:30:13;;;;;;;5.43;3.10;;;;;;;13.57;79.76;101808.28;6215349;23;20036;-82
2022/05/26 04:32:40;;;;;;;6.87;3.23;;;;;;;13.57;80.56;101805.66;6214377;23;20084;-82
2022/05/26 04:35:06;;;;;;;5.97;2.80;;;;;;;13.57;80.21;101800.44;6215206;23;20413;-82
2022/05/26 04:37:32;;;;;;;;;;;;;;;13.58;79.64;101808.25;6215819;23;20027;-82
2022/05/26 04:39:58;;;;;;;5.37;2.40;;;;;;;13.62;79.58;101805.59;6214323;23;20319;-83
2022/05/26 04:42:25;;;;;;;3.38;2.20;;;;;;;13.65;79.63;101813.41;6215425;23;20001;-82
2022/05/26 04:44:50;;;;;;;;;;;;;;;13.67;80.28;101815.09;6215540;23;20000;-82
2022/05/26 04:47:17;;;;;;;4.93;2.20;;;;;;;13.69;79.83;101821.16;6214458;23;19995;-82
2022/05/26 04:49:42;;;;;;;;;;;;;;;13.69;79.32;101823.78;6215386;23;20005;-83
2022/05/26 04:52:14;;;;;;;3.33;2.00;;;;;;;13.72;79.38;101821.13;6215191;23;19962;-82
2022/05/26 04:54:39;;;;;;;3.40;2.22;;;;;;;13.75;78.58;101820.22;6213992;23;20004;-82
2022/05/26 04:57:06;;;;;;;5.23;2.37;;;;;;;13.79;78.90;101831.47;6215412;23;20321;-82
2022/05/26 04:59:32;;;;;;;;;;;;;;;13.83;79.71;101826.19;6215516;23;20495;-82
2022/05/26 05:01:57;;;;;;;3.92;2.30;;;;;;;13.85;79.85;101834.00;6214065;23;19951;-83
2022/05/26 05:04:24;;;;;;;8.17;3.20;;;;;;;13.88;79.65;101841.78;6214941;23;20012;-82
2022/05/26 05:06:50;;;;;;;5.60;2.50;;;;;;;13.91;79.83;101844.38;6214900;23;20043;-83
2022/05/26 05:09:15;;;;;;;4.60;2.40;;;;;;;13.93;79.43;101846.94;6214542;23;20004;-83
2022/05/26 05:11:40;;;;;;;5.23;2.57;;;;;;;13.93;79.73;101855.66;6215045;23;20032;-82
2022/05/26 05:14:06;;;;;;;5.97;2.77;;;;;;;13.96;79.80;101859.97;6215053;23;20024;-82
2022/05/26 05:16:42;;;;;;;3.60;2.30;;;;;;;13.99;79.48;101866.00;6214592;23;20011;-82
2022/05/26 05:19:11;;;;;;;3.10;2.10;;;;;;;14.02;79.18;101865.09;6215199;23;20012;-82
2022/05/26 05:21:49;;;;;;;2.45;1.80;;;;;;;14.07;79.18;101857.22;6213859;23;20005;-82
2022/05/26 05:24:28;;;;;;;4.93;2.20;;;;;;;14.09;79.11;101860.66;6215346;23;20051;-82
2022/05/26 05:26:58;;;;;;;5.18;2.30;;;;;;;14.12;78.88;101865.84;6214888;23;20079;-82
2022/05/26 05:29:32;;;;;;;7.22;2.80;;;;;;;14.15;78.87;101873.63;6213984;23;20009;-82
2022/05/26 05:32:02;;;;;;;5.32;2.45;;;;;;;14.16;78.88;101875.34;6216454;23;20008;-82
2022/05/26 05:34:40;;;;;;;5.60;2.85;;;;;;;14.18;79.44;101874.44;6216692;23;20087;-83
2022/05/26 05:37:06;;;;;;;3.88;2.15;;;;;;;14.20;78.67;101875.28;6216002;23;20414;-83
2022/05/26 05:39:31;;;;;;;12.13;3.87;;;;;;;14.22;79.12;101880.47;6217029;23;20003;-83
2022/05/26 05:41:58;;;;;;;6.80;2.83;;;;;;;14.27;78.95;101881.28;6216891;23;20330;-83
2022/05/26 05:44:23;;;;;;;4.80;2.22;;;;;;;14.32;79.31;101881.22;6216269;23;20079;-83
2022/05/26 05:46:54;;;;;;;4.37;2.50;;;;;;;14.34;78.95;101879.47;6216809;23;20078;-82
2022/05/26 05:49:22;;;;;;;3.50;2.30;;;;;;;14.41;78.53;101883.69;6217024;23;20005;-83
2022/05/26 05:51:47;;;;;;;4.07;2.38;;;;;;;14.48;78.58;101892.31;6215831;23;20011;-83
2022/05/26 05:54:12;;;;;;;2.03;1.70;;;;;;;14.58;78.59;101890.44;6216981;23;20028;-83
2022/05/26 05:56:38;;;;;;;1.90;1.70;;;;;;;14.72;79.06;101887.63;6215834;23;20009;-83
2022/05/26 05:59:04;;;;;;;3.87;2.00;;;;;;;14.83;78.59;101893.53;6217014;23;20334;-83
2022/05/26 06:01:29;;;;;;;5.37;2.03;;;;;;;14.90;78.11;101892.53;6216925;23;20480;-83
2022/05/26 06:03:54;;;;;;;4.00;2.17;;;;;;;14.96;77.81;101897.69;6215826;23;20054;-83
2022/05/26 06:06:20;;;;;;;7.20;2.30;;;;;;;15.01;78.50;101902.84;6216876;23;20008;-82
2022/05/26 06:08:45;;;;;;;4.97;2.20;;;;;;;15.02;77.03;101898.47;6216119;23;20013;-83
2022/05/26 06:11:10;;;;;;;5.87;2.50;;;;;;;15.13;77.40;101905.25;6216152;23;20074;-83
2022/05/26 06:13:35;;;;;;;5.03;2.33;;;;;;;15.26;77.24;101912.84;6216991;23;20323;-83
2022/05/26 06:16:01;;;;;;;3.13;2.03;;;;;;;15.40;77.62;101916.06;6215715;23;20040;-82
2022/05/26 06:18:26;;;;;;;4.10;2.13;;;;;;;15.46;76.68;101916.88;6216162;23;20001;-80
2022/05/26 06:21:00;;;;;;;5.73;2.60;;;;;;;15.46;77.09;101917.72;6216142;23;20067;-83
2022/05/26 06:23:25;;;;;;;5.65;2.60;;;;;;;15.45;76.19;101913.38;6216407;23;20516;-83
2022/05/26 06:25:51;;;;;;;9.37;3.17;;;;;;;15.39;76.43;101921.34;6215380;23;20004;-81
2022/05/26 06:31:00;;;;;;;3.88;2.50;;;;;;;15.44;76.42;101927.34;6215935;23;20023;-81
2022/05/26 06:38:56;;;;;;;9.40;3.60;;;;;;;15.97;75.47;101937.69;6214881;23;20019;-81
2022/05/26 06:44:06;;;;;;;6.95;3.65;;;;;;;16.40;74.44;101943.78;6216284;23;20020;-81
2022/05/26 06:46:31;;;;;;;6.10;3.13;;;;;;;16.52;73.96;101943.50;6215373;23;20406;-80
2022/05/26 06:48:56;;;;;;;5.70;3.20;;;;;;;16.55;73.82;101939.97;6216081;23;20008;-81
2022/05/26 06:51:24;;;;;;;6.70;3.33;;;;;;;16.66;73.40;101944.97;6215799;23;20380;-82
2022/05/26 06:53:50;;;;;;;5.90;2.80;;;;;;;17.01;73.30;101942.41;6214580;23;20007;-84
2022/05/26 06:56:16;;;;;;;5.32;2.60;;;;;;;17.45;72.03;101943.03;6216460;23;20016;-84
2022/05/26 06:58:41;;;;;;;6.17;3.00;;;;;;;17.75;71.80;101957.09;6216135;23;20008;-83
2022/05/26 07:01:06;;;;;;;8.97;3.83;;;;;;;17.82;69.55;101959.53;6214447;23;20019;-84
2022/05/26 07:03:31;;;;;;;10.03;4.27;;;;;;;17.64;67.84;101953.91;6216129;23;20005;-85
2022/05/26 07:05:57;;;;;;;8.53;3.90;;;;;;;17.69;69.77;101956.38;6215867;23;20418;-84
2022/05/26 07:08:22;;;;;;;5.77;3.43;;;;;;;17.81;69.35;101955.19;6215017;23;20019;-84
2022/05/26 07:10:50;;;;;;;8.20;3.43;;;;;;;17.88;67.87;101959.38;6215654;23;20027;-88
2022/05/26 07:13:15;;;;;;;5.63;3.00;;;;;;;18.02;69.14;101959.84;6216377;23;20005;-84
2022/05/26 07:15:41;;;;;;;5.33;2.93;;;;;;;18.12;68.16;101964.88;6214967;23;20005;-84
2022/05/26 07:18:07;;;;;;;10.23;4.00;;;;;;;18.23;68.38;101975.03;6216111;23;20015;-81
2022/05/26 07:20:34;;;;;;;;;;;;;;;18.31;68.14;101976.53;6216739;23;20004;-82
2022/05/26 07:22:59;;;;;;;7.95;3.72;;;;;;;18.45;67.59;101978.75;6214951;23;19979;-82
2022/05/26 07:25:25;;;;;;;7.90;3.50;;;;;;;18.62;67.73;101975.59;6216304;23;20032;-81
2022/05/26 07:27:50;;;;;;;7.87;3.60;;;;;;;18.67;66.41;101981.59;6215486;23;20100;-81
2022/05/26 07:30:15;;;;;;;5.10;2.80;;;;;;;18.62;67.16;101980.84;6214924;23;20035;-81
2022/05/26 07:32:40;;;;;;;4.93;2.70;;;;;;;18.53;67.14;101996.91;6215789;23;20004;-86
2022/05/26 07:35:06;;;;;;;4.63;2.77;;;;;;;18.29;65.85;101991.50;6214513;23;20036;-84
2022/05/26 07:42:59;;;;;;;6.68;3.20;;;;;;;17.74;65.45;102002.63;6213609;23;20016;-84
2022/05/26 07:45:24;;;;;;;4.90;2.83;;;;;;;17.70;67.34;102002.75;6216079;23;20005;-85
2022/05/26 07:47:50;;;;;;;3.37;2.53;;;;;;;17.82;67.25;102001.53;6215513;23;20008;-84
2022/05/26 07:50:20;;;;;;;4.47;2.90;;;;;;;17.98;65.94;102000.25;6214816;23;20008;-85
2022/05/26 07:52:47;;;;;;;6.60;2.83;;;;;;;18.02;67.05;102001.88;6214523;23;20035;-86
2022/05/26 07:55:12;;;;;;;3.80;2.50;;;;;;;18.02;66.96;101996.63;6215499;23;20055;-85
2022/05/26 07:57:37;;;;;;;5.07;2.80;;;;;;;17.94;65.93;102000.34;6214353;23;20004;-85
2022/05/26 08:00:03;;;;;;;5.80;3.40;;;;;;;17.85;65.85;102004.94;6215727;23;20008;-84
2022/05/26 08:02:28;;;;;;;5.40;3.10;;;;;;;17.82;66.60;102001.53;6215503;23;20001;-88
2022/05/26 08:04:54;;;;;;;5.53;2.53;;;;;;;17.86;65.78;102003.19;6214818;23;20017;-86
2022/05/26 08:07:19;;;;;;;3.50;2.90;;;;;;;17.94;65.50;102003.84;6214540;23;20016;-88
2022/05/26 08:09:44;;;;;;;3.53;2.60;;;;;;;18.04;67.07;102009.72;6214993;23;20004;-88
2022/05/26 08:12:12;;;;;;;7.00;3.37;;;;;;;18.29;65.44;102012.50;6214407;23;20317;-88
2022/05/26 08:14:39;;;;;;;5.88;3.80;;;;;;;18.50;64.32;102016.28;6214589;23;20432;-88
2022/05/26 08:17:04;;;;;;;9.05;4.03;;;;;;;18.48;64.64;102014.59;6213786;23;20005;-87
2022/05/26 08:19:30;;;;;;;10.40;4.68;;;;;;;18.48;63.25;102014.59;6214743;23;20055;-87
2022/05/26 08:21:55;;;;;;;8.23;3.87;;;;;;;18.60;65.20;102010.75;6215180;23;20484;-87
2022/05/26 08:24:24;;;;;;;4.70;2.80;;;;;;;18.61;64.71;102015.09;6214363;23;20012;-86
2022/05/26 08:26:50;;;;;;;3.45;2.70;;;;;;;18.51;65.06;102015.38;6213594;23;20009;-88
2022/05/26 08:29:15;;;;;;;3.33;2.50;;;;;;;18.42;64.46;102020.88;6215389;23;20123;-87
2022/05/26 08:31:40;;;;;;;4.63;2.90;;;;;;;18.39;64.60;102021.00;6212954;23;20011;-87
2022/05/26 08:34:06;;;;;;;5.03;2.80;;;;;;;18.42;64.14;102026.13;6215322;23;20402;-88
2022/05/26 08:36:33;;;;;;;5.80;3.53;;;;;;;18.41;64.29;102023.56;6215391;23;20009;-87
2022/05/26 08:38:58;;;;;;;6.70;3.25;;;;;;;18.40;64.01;102027.97;6213866;23;20012;-87
2022/05/26 08:41:28;;;;;;;5.53;3.70;;;;;;;18.32;63.65;102024.69;6212194;23;20071;-86
2022/05/26 08:43:57;;;;;;;6.07;3.53;;;;;;;18.37;64.00;102021.03;6211745;23;20015;-88
2022/05/26 08:46:25;;;;;;;4.55;3.00;;;;;;;18.58;63.93;102037.06;6213868;23;20139;-89
2022/05/26 08:49:02;;;;;;;4.70;3.10;;;;;;;18.73;63.07;102040.13;6213615;23;20157;-84
2022/05/26 08:51:47;;;;;;;3.92;2.92;;;;;;;18.92;63.43;102033.38;6214663;23;20015;-85
2022/05/26 08:54:33;;;;;;;5.10;2.97;;;;;;;19.11;62.76;102028.44;6212872;23;20001;-86
2022/05/26 08:57:00;;;;;;;3.13;2.67;;;;;;;19.39;62.81;102034.56;6209724;23;20629;-84
2022/05/26 08:59:32;;;;;;;2.50;2.30;;;;;;;19.68;62.39;102044.09;6209234;23;20108;-84
2022/05/26 09:02:00;;;;;;;3.40;2.47;;;;;;;19.85;61.60;102040.88;6209735;23;20377;-86
2022/05/26 09:04:26;;;;;;;3.15;2.60;;;;;;;19.98;61.10;102045.75;6214233;23;20004;-85
2022/05/26 09:12:56;;;;;;;6.22;3.20;;;;;;;20.03;58.11;102042.03;6214702;23;20397;-84
2022/05/26 09:15:21;;;;;;;3.15;2.60;;;;;;;20.15;59.28;102045.13;6214745;23;20055;-86
2022/05/26 09:17:46;;;;;;;5.07;2.97;;;;;;;20.30;56.91;102046.34;6215037;23;20013;-86
2022/05/26 09:20:35;;;;;;;7.27;3.20;;;;;;;20.22;57.28;102043.97;6214729;23;20009;-85
2022/05/26 09:23:10;;;;;;;5.95;3.20;;;;;;;20.26;57.20;102057.94;6214956;23;20036;-87
2022/05/26 09:25:45;;;;;;;4.50;2.65;;;;;;;20.38;57.33;102046.91;6215052;23;20335;-86
2022/05/26 09:28:11;;;;;;;3.35;2.58;;;;;;;20.50;56.46;102041.16;6214178;23;20008;-86
2022/05/26 09:30:38;;;;;;;2.63;2.43;;;;;;;20.69;56.95;102051.03;6214349;23;20016;-86
2022/05/26 09:33:17;;;;;;;3.83;2.80;;;;;;;20.89;57.50;102060.81;6215256;23;20330;-86
2022/05/26 09:35:46;;;;;;;5.75;3.70;;;;;;;20.92;56.06;102062.50;6214159;23;20005;-85
2022/05/26 09:38:17;;;;;;;6.10;4.10;;;;;;;20.92;52.69;102065.13;6214180;23;20008;-87
2022/05/26 09:40:46;;;;;;;8.30;4.00;;;;;;;20.73;53.56;102068.44;6214036;23;20423;-86
2022/05/26 09:43:17;;;;;;;6.88;4.45;;;;;;;20.55;55.17;102084.97;6214403;23;20004;-84
2022/05/26 09:45:54;;;;;;;7.30;4.50;;;;;;;20.55;55.52;102077.06;6214514;23;20055;-85
2022/05/26 09:48:33;;;;;;;8.60;4.85;;;;;;;20.70;55.94;102078.25;6215089;23;20013;-84
2022/05/26 09:51:01;;;;;;;6.30;4.25;;;;;;;20.86;54.18;102075.91;6212250;23;20393;-84
2022/05/26 09:53:33;;;;;;;6.93;4.40;;;;;;;20.83;55.31;102082.16;6214707;23;20089;-84
2022/05/26 09:55:59;;;;;;;5.50;4.20;;;;;;;20.66;55.15;102081.00;6210554;23;20004;-86
2022/05/26 09:58:29;;;;;;;4.73;3.90;;;;;;;20.52;56.25;102083.31;6214514;23;20055;-86
2022/05/26 10:01:00;;;;;;;3.97;3.55;;;;;;;20.69;57.07;102082.69;6214410;23;20075;-84
2022/05/26 10:03:31;;;;;;;5.72;4.03;;;;;;;20.96;53.46;102093.97;6214452;23;20008;-86
2022/05/26 10:05:56;;;;;;;6.05;4.50;;;;;;;20.97;52.39;102087.78;6214468;23;20012;-85
2022/05/26 10:08:34;;;;;;;6.30;4.00;;;;;;;20.82;54.89;102080.44;6214372;23;20434;-83
2022/05/26 10:11:09;;;;;;;4.63;3.40;;;;;;;20.69;54.25;102077.41;6212914;23;20005;-85
2022/05/26 10:14:12;;;;;;;4.70;3.80;;;;;;;20.52;55.86;102088.59;6214903;23;20000;-85
2022/05/26 10:16:45;;;;;;;7.97;4.80;;;;;;;20.56;54.82;102089.34;6163776;23;20013;-85
2022/05/26 10:19:10;;;;;;;8.05;5.28;;;;;;;20.49;54.17;102093.97;6215496;23;20015;-83
2022/05/26 10:22:08;;;;;;;8.53;5.03;;;;;;;20.65;53.36;102079.31;6215916;23;20087;-83
2022/05/26 10:25:05;;;;;;;7.00;4.28;;;;;;;20.78;53.96;102087.63;6215926;23;20007;-85
2022/05/26 10:27:39;;;;;;;5.15;3.90;;;;;;;21.07;53.03;102090.88;6216509;23;20012;-86
2022/05/26 10:30:29;;;;;;;7.00;4.38;;;;;;;21.38;54.49;102089.66;6216687;23;20023;-85
2022/05/26 10:33:12;;;;;;;6.18;3.90;;;;;;;21.65;52.81;102084.16;6215083;23;20422;-85
2022/05/26 10:35:52;;;;;;;5.97;3.80;;;;;;;21.78;52.14;102083.66;6215948;23;20426;-86
2022/05/26 10:38:31;;;;;;;4.50;3.22;;;;;;;21.90;53.48;102083.13;6215392;23;20096;-86
2022/05/26 10:41:20;;;;;;;4.13;3.17;;;;;;;21.93;51.95;102093.56;6216318;23;20004;-84
2022/05/26 10:44:02;;;;;;;5.10;3.30;;;;;;;21.64;52.30;102089.53;6216124;23;20040;-85
2022/05/26 10:46:30;;;;;;;5.22;3.20;;;;;;;21.39;52.51;102095.78;6215109;23;20307;-85
2022/05/26 10:49:06;;;;;;;3.85;2.90;;;;;;;21.28;52.93;102093.56;6215509;23;20035;-85
2022/05/26 10:51:40;;;;;;;5.10;3.53;;;;;;;21.42;53.00;102091.25;6215249;23;20000;-84
2022/05/26 10:54:15;;;;;;;5.90;4.20;;;;;;;21.51;51.77;102082.09;6212492;23;20001;-86
2022/05/26 10:57:03;;;;;;;6.10;4.13;;;;;;;21.57;52.61;102086.25;6215835;23;20028;-85
2022/05/26 10:59:39;;;;;;;3.85;3.30;;;;;;;21.50;52.31;102084.81;6215389;23;20082;-86
2022/05/26 11:02:23;;;;;;;;;;;;;;;21.43;53.35;102087.69;6216385;23;20422;-86
2022/05/26 11:04:58;;;;;;;7.13;4.30;;;;;;;21.67;51.59;102092.88;6215483;23;19907;-86
2022/05/26 11:07:31;;;;;;;6.28;4.10;;;;;;;21.95;52.20;102096.13;6214184;23;20032;-86
2022/05/26 11:10:13;;;;;;;6.03;4.22;;;;;;;22.16;49.71;102096.97;6215319;23;20027;-86
2022/05/26 11:13:26;;;;;;;5.53;4.10;;;;;;;22.02;51.56;102095.78;6215350;23;20484;-86
2022/05/26 11:19:01;;;;;;;5.03;3.60;;;;;;;21.72;50.13;102090.94;6215418;23;20342;-85
2022/05/26 11:21:26;;;;;;;4.78;3.50;;;;;;;21.65;52.53;102091.25;6214495;23;20036;-85
2022/05/26 11:23:52;;;;;;;3.97;3.30;;;;;;;21.50;51.42;102092.72;6215041;23;20322;-85
2022/05/26 11:26:42;;;;;;;5.77;4.17;;;;;;;21.23;51.19;102092.91;6216035;23;20005;-86
2022/05/26 11:29:39;;;;;;;4.72;4.20;;;;;;;20.91;52.18;102095.06;6214575;23;20260;-86
2022/05/26 11:38:09;;;;;;;7.68;4.05;;;;;;;21.11;50.97;102079.31;6215293;23;20207;-85
2022/05/26 11:40:49;;;;;;;4.97;4.10;;;;;;;21.28;52.20;102070.69;6215663;23;20005;-87
2022/05/26 11:43:29;;;;;;;4.70;3.50;;;;;;;21.42;52.77;102079.84;6214960;23;20504;-85
2022/05/26 11:45:58;;;;;;;5.60;4.10;;;;;;;21.42;49.98;102080.69;6215026;23;20371;-85
2022/05/26 11:48:32;;;;;;;8.10;4.95;;;;;;;21.29;50.72;102088.25;6214702;23;20063;-87
2022/05/26 11:51:17;;;;;;;5.07;3.83;;;;;;;21.08;51.72;102079.41;6215361;23;20012;-87
2022/05/26 11:53:44;;;;;;;8.43;4.90;;;;;;;20.63;50.45;102075.88;6215202;23;20005;-85
2022/05/26 11:56:25;;;;;;;6.82;4.50;;;;;;;20.45;52.81;102080.06;6214456;23;20016;-85
2022/05/26 11:59:23;;;;;;;5.80;4.18;;;;;;;20.38;53.31;102075.91;6215291;23;20016;-87
2022/05/26 12:02:07;;;;;;;3.80;3.38;;;;;;;20.73;52.54;102070.22;6215299;23;20321;-86
2022/05/26 12:04:32;;;;;;;5.85;4.20;;;;;;;21.11;51.83;102066.09;6213310;23;20024;-85
2022/05/26 12:07:37;;;;;;;5.57;4.50;;;;;;;21.43;52.34;102058.63;6215208;23;20493;-84
2022/05/26 12:10:18;;;;;;;5.50;4.10;;;;;;;21.78;52.18;102054.56;6179459;23;20008;-85
2022/05/26 12:12:43;;;;;;;5.93;4.00;;;;;;;21.89;52.39;102058.50;6215308;23;20013;-85
2022/05/26 12:15:27;;;;;;;4.40;3.77;;;;;;;21.94;52.22;102052.13;6215436;23;20075;-86
2022/05/26 12:17:55;;;;;;;6.15;4.13;;;;;;;22.00;51.39;102049.22;6213988;23;20075;-86
2022/05/26 12:20:21;;;;;;;7.28;4.40;;;;;;;22.08;50.52;102039.16;6215749;23;20000;-86